sensor_id;sensor_type;location;lat;lon;timestamp;pressure;altitude;pressure_sealevel;temperature
15453;BMP280;7827;53.594;9.938;2023-08-08T00:02:20;31333.72;;;-135.29
15453;BMP280;7827;53.594;9.938;2023-08-08T00:04:49;31413.09;;;-135.29
15453;BMP280;7827;53.594;9.938;2023-08-08T00:07:17;31502.13;;;-135.29
15453;BMP280;7827;53.594;9.938;2023-08-08T00:09:45;31451.81;;;-135.29
15453;BMP280;7827;53.594;9.938;2023-08-08T00:12:14;31486.66;;;-135.29
15453;BMP280;7827;53.594;9.938;2023-08-08T00:14:42;31459.53;;;-135.29
15453;BMP280;7827;53.594;9.938;2023-08-08T00:17:12;31498.25;;;-135.29
15453;BMP280;7827;53.594;9.938;2023-08-08T00:19:41;31502.13;;;-135.29
15453;BMP280;7827;53.594;9.938;2023-08-08T00:22:09;31436.31;;;-135.29
15453;BMP280;7827;53.594;9.938;2023-08-08T00:24:38;31573.75;;;-135.29
15453;BMP280;7827;53.594;9.938;2023-08-08T00:27:06;31511.81;;;-135.29
15453;BMP280;7827;53.594;9.938;2023-08-08T00:29:35;31476.97;;;-135.29
15453;BMP280;7827;53.594;9.938;2023-08-08T00:32:04;31604.72;;;-135.29
15453;BMP280;7827;53.594;9.938;2023-08-08T00:34:33;31626.03;;;-135.29
15453;BMP280;7827;53.594;9.938;2023-08-08T00:37:02;31668.63;;;-135.29
15453;BMP280;7827;53.594;9.938;2023-08-08T00:39:31;31434.38;;;-135.29
15453;BMP280;7827;53.594;9.938;2023-08-08T00:41:59;31620.22;;;-135.29
15453;BMP280;7827;53.594;9.938;2023-08-08T00:44:28;31608.59;;;-135.29
15453;BMP280;7827;53.594;9.938;2023-08-08T00:46:56;31550.53;;;-135.29
15453;BMP280;7827;53.594;9.938;2023-08-08T00:49:25;31413.09;;;-135.29
15453;BMP280;7827;53.594;9.938;2023-08-08T00:51:55;31490.50;;;-135.29
15453;BMP280;7827;53.594;9.938;2023-08-08T00:54:24;31507.94;;;-135.29
15453;BMP280;7827;53.594;9.938;2023-08-08T00:56:52;31678.28;;;-135.29
15453;BMP280;7827;53.594;9.938;2023-08-08T00:59:21;31691.84;;;-135.29
15453;BMP280;7827;53.594;9.938;2023-08-08T01:01:50;31713.16;;;-135.29
15453;BMP280;7827;53.594;9.938;2023-08-08T01:04:18;31701.53;;;-135.29
15453;BMP280;7827;53.594;9.938;2023-08-08T01:06:58;31595.06;;;-135.29
15453;BMP280;7827;53.594;9.938;2023-08-08T01:09:37;31655.06;;;-135.29
15453;BMP280;7827;53.594;9.938;2023-08-08T01:12:11;31616.34;;;-135.29
15453;BMP280;7827;53.594;9.938;2023-08-08T01:14:42;31682.16;;;-135.29
15453;BMP280;7827;53.594;9.938;2023-08-08T01:17:12;31759.59;;;-135.29
15453;BMP280;7827;53.594;9.938;2023-08-08T01:19:41;31627.97;;;-135.29
15453;BMP280;7827;53.594;9.938;2023-08-08T01:22:22;31614.41;;;-135.29
15453;BMP280;7827;53.594;9.938;2023-08-08T01:24:55;31651.19;;;-135.29
15453;BMP280;7827;53.594;9.938;2023-08-08T01:27:23;31749.94;;;-135.29
15453;BMP280;7827;53.594;9.938;2023-08-08T01:29:53;31846.72;;;-135.29
15453;BMP280;7827;53.594;9.938;2023-08-08T01:32:21;31744.13;;;-135.29
15453;BMP280;7827;53.594;9.938;2023-08-08T01:34:50;31860.28;;;-135.29
15453;BMP280;7827;53.594;9.938;2023-08-08T01:37:26;31744.13;;;-135.29
15453;BMP280;7827;53.594;9.938;2023-08-08T01:39:59;31730.56;;;-135.29
15453;BMP280;7827;53.594;9.938;2023-08-08T01:42:30;31707.34;;;-135.29
15453;BMP280;7827;53.594;9.938;2023-08-08T01:45:00;31664.75;;;-135.29
15453;BMP280;7827;53.594;9.938;2023-08-08T01:47:30;31730.56;;;-135.29
15453;BMP280;7827;53.594;9.938;2023-08-08T01:49:58;31775.09;;;-135.29
15453;BMP280;7827;53.594;9.938;2023-08-08T01:52:27;31742.19;;;-135.29
15453;BMP280;7827;53.594;9.938;2023-08-08T01:54:57;31678.28;;;-135.29
15453;BMP280;7827;53.594;9.938;2023-08-08T01:57:25;31662.81;;;-135.29
15453;BMP280;7827;53.594;9.938;2023-08-08T01:59:53;31775.09;;;-135.29
15453;BMP280;7827;53.594;9.938;2023-08-08T02:02:22;31825.44;;;-135.29
15453;BMP280;7827;53.594;9.938;2023-08-08T02:04:50;31554.41;;;-135.29
15453;BMP280;7827;53.594;9.938;2023-08-08T02:07:19;31713.16;;;-135.29
15453;BMP280;7827;53.594;9.938;2023-08-08T02:09:47;31734.44;;;-135.29
15453;BMP280;7827;53.594;9.938;2023-08-08T02:12:19;31651.19;;;-135.29
15453;BMP280;7827;53.594;9.938;2023-08-08T02:14:47;31697.66;;;-135.29
15453;BMP280;7827;53.594;9.938;2023-08-08T02:17:16;31645.38;;;-135.29
15453;BMP280;7827;53.594;9.938;2023-08-08T02:19:44;31806.06;;;-135.29
15453;BMP280;7827;53.594;9.938;2023-08-08T02:22:13;31868.03;;;-135.29
15453;BMP280;7827;53.594;9.938;2023-08-08T02:24:42;31728.63;;;-135.29
15453;BMP280;7827;53.594;9.938;2023-08-08T02:27:12;31728.63;;;-135.29
15453;BMP280;7827;53.594;9.938;2023-08-08T02:29:42;31920.31;;;-135.29
15453;BMP280;7827;53.594;9.938;2023-08-08T02:32:11;31695.72;;;-135.29
15453;BMP280;7827;53.594;9.938;2023-08-08T02:34:40;31833.19;;;-135.29
15453;BMP280;7827;53.594;9.938;2023-08-08T02:37:09;31883.53;;;-135.29
15453;BMP280;7827;53.594;9.938;2023-08-08T02:39:41;31790.59;;;-135.29
15453;BMP280;7827;53.594;9.938;2023-08-08T02:42:10;31767.34;;;-135.29
15453;BMP280;7827;53.594;9.938;2023-08-08T02:44:39;31746.06;;;-135.29
15453;BMP280;7827;53.594;9.938;2023-08-08T02:47:08;31720.88;;;-135.29
15453;BMP280;7827;53.594;9.938;2023-08-08T02:49:37;31682.16;;;-135.29
15453;BMP280;7827;53.594;9.938;2023-08-08T02:52:07;31871.91;;;-135.29
15453;BMP280;7827;53.594;9.938;2023-08-08T02:54:36;31846.72;;;-135.29
15453;BMP280;7827;53.594;9.938;2023-08-08T02:57:04;31715.09;;;-135.29
15453;BMP280;7827;53.594;9.938;2023-08-08T02:59:33;31736.38;;;-135.29
15453;BMP280;7827;53.594;9.938;2023-08-08T03:02:05;31825.44;;;-135.29
15453;BMP280;7827;53.594;9.938;2023-08-08T03:04:36;31891.25;;;-135.29
15453;BMP280;7827;53.594;9.938;2023-08-08T03:07:06;31738.31;;;-135.29
15453;BMP280;7827;53.594;9.938;2023-08-08T03:09:36;31875.78;;;-135.29
15453;BMP280;7827;53.594;9.938;2023-08-08T03:12:06;31813.81;;;-135.29
15453;BMP280;7827;53.594;9.938;2023-08-08T03:14:36;31666.69;;;-135.29
15453;BMP280;7827;53.594;9.938;2023-08-08T03:17:05;31902.88;;;-135.29
15453;BMP280;7827;53.594;9.938;2023-08-08T03:19:33;31748.00;;;-135.29
15453;BMP280;7827;53.594;9.938;2023-08-08T03:22:04;31819.63;;;-135.29
15453;BMP280;7827;53.594;9.938;2023-08-08T03:24:36;31914.50;;;-135.29
15453;BMP280;7827;53.594;9.938;2023-08-08T03:27:05;31707.34;;;-135.29
15453;BMP280;7827;53.594;9.938;2023-08-08T03:29:34;31966.78;;;-135.29
15453;BMP280;7827;53.594;9.938;2023-08-08T03:32:04;31755.75;;;-135.29
15453;BMP280;7827;53.594;9.938;2023-08-08T03:34:33;31765.41;;;-135.29
15453;BMP280;7827;53.594;9.938;2023-08-08T03:37:04;31933.84;;;-135.29
15453;BMP280;7827;53.594;9.938;2023-08-08T03:39:35;31759.59;;;-135.29
15453;BMP280;7827;53.594;9.938;2023-08-08T03:42:04;31875.78;;;-135.29
15453;BMP280;7827;53.594;9.938;2023-08-08T03:44:33;31839.00;;;-135.29
15453;BMP280;7827;53.594;9.938;2023-08-08T03:47:01;31922.25;;;-135.29
15453;BMP280;7827;53.594;9.938;2023-08-08T03:49:45;31897.06;;;-135.29
15453;BMP280;7827;53.594;9.938;2023-08-08T03:52:15;31728.63;;;-135.29
15453;BMP280;7827;53.594;9.938;2023-08-08T03:54:44;31829.31;;;-135.29
15453;BMP280;7827;53.594;9.938;2023-08-08T03:57:12;31748.00;;;-135.29
15453;BMP280;7827;53.594;9.938;2023-08-08T03:59:41;31736.38;;;-135.29
15453;BMP280;7827;53.594;9.938;2023-08-08T04:02:09;31585.38;;;-135.29
15453;BMP280;7827;53.594;9.938;2023-08-08T04:04:38;31635.72;;;-135.29
15453;BMP280;7827;53.594;9.938;2023-08-08T04:07:06;31724.75;;;-135.29
15453;BMP280;7827;53.594;9.938;2023-08-08T04:09:36;31852.53;;;-135.29
15453;BMP280;7827;53.594;9.938;2023-08-08T04:12:06;31620.22;;;-135.29
15453;BMP280;7827;53.594;9.938;2023-08-08T04:14:34;31718.94;;;-135.29
15453;BMP280;7827;53.594;9.938;2023-08-08T04:17:03;31620.22;;;-135.29
15453;BMP280;7827;53.594;9.938;2023-08-08T04:19:32;31678.28;;;-135.29
15453;BMP280;7827;53.594;9.938;2023-08-08T04:22:00;31817.69;;;-135.29
15453;BMP280;7827;53.594;9.938;2023-08-08T04:24:29;31798.34;;;-135.29
15453;BMP280;7827;53.594;9.938;2023-08-08T04:26:58;31736.38;;;-135.29
15453;BMP280;7827;53.594;9.938;2023-08-08T04:29:27;31627.97;;;-135.29
15453;BMP280;7827;53.594;9.938;2023-08-08T04:31:55;31569.88;;;-135.29
15453;BMP280;7827;53.594;9.938;2023-08-08T04:34:24;31955.16;;;-135.29
15453;BMP280;7827;53.594;9.938;2023-08-08T04:36:52;31554.41;;;-135.29
15453;BMP280;7827;53.594;9.938;2023-08-08T04:39:21;31720.88;;;-135.29
15453;BMP280;7827;53.594;9.938;2023-08-08T04:41:49;31593.13;;;-135.29
15453;BMP280;7827;53.594;9.938;2023-08-08T04:44:19;31627.97;;;-135.29
15453;BMP280;7827;53.594;9.938;2023-08-08T04:46:47;31780.91;;;-135.29
15453;BMP280;7827;53.594;9.938;2023-08-08T04:49:15;31844.78;;;-135.29
15453;BMP280;7827;53.594;9.938;2023-08-08T04:51:44;31893.19;;;-135.29
15453;BMP280;7827;53.594;9.938;2023-08-08T04:54:12;31910.63;;;-135.29
15453;BMP280;7827;53.594;9.938;2023-08-08T04:56:41;31782.84;;;-135.29
15453;BMP280;7827;53.594;9.938;2023-08-08T04:59:09;31577.63;;;-135.29
15453;BMP280;7827;53.594;9.938;2023-08-08T05:01:39;31298.88;;;-135.29
15453;BMP280;7827;53.594;9.938;2023-08-08T05:04:08;31182.75;;;-135.29
15453;BMP280;7827;53.594;9.938;2023-08-08T05:06:37;31124.66;;;-135.29
15453;BMP280;7827;53.594;9.938;2023-08-08T05:09:05;30993.06;;;-135.29
15453;BMP280;7827;53.594;9.938;2023-08-08T05:11:36;31027.91;;;-135.29
15453;BMP280;7827;53.594;9.938;2023-08-08T05:14:04;30865.31;;;-135.29
15453;BMP280;7827;53.594;9.938;2023-08-08T05:16:33;30838.22;;;-135.29
15453;BMP280;7827;53.594;9.938;2023-08-08T05:19:02;30816.94;;;-135.29
15453;BMP280;7827;53.594;9.938;2023-08-08T05:21:31;30739.53;;;-135.29
15453;BMP280;7827;53.594;9.938;2023-08-08T05:23:59;30718.22;;;-135.29
15453;BMP280;7827;53.594;9.938;2023-08-08T05:26:28;30749.19;;;-135.29
15453;BMP280;7827;53.594;9.938;2023-08-08T05:28:56;30619.53;;;-135.29
15453;BMP280;7827;53.594;9.938;2023-08-08T05:31:25;30689.19;;;-135.29
15453;BMP280;7827;53.594;9.938;2023-08-08T05:33:53;30813.06;;;-135.29
15453;BMP280;7827;53.594;9.938;2023-08-08T05:36:22;30555.66;;;-135.29
15453;BMP280;7827;53.594;9.938;2023-08-08T05:38:51;30613.72;;;-135.29
15453;BMP280;7827;53.594;9.938;2023-08-08T05:41:19;30277.03;;;-135.29
15453;BMP280;7827;53.594;9.938;2023-08-08T05:43:48;30275.09;;;-135.29
15453;BMP280;7827;53.594;9.938;2023-08-08T05:46:16;30205.44;;;-135.29
15453;BMP280;7827;53.594;9.938;2023-08-08T05:48:44;30319.59;;;-135.29
15453;BMP280;7827;53.594;9.938;2023-08-08T05:51:14;30331.19;;;-135.29
15453;BMP280;7827;53.594;9.938;2023-08-08T05:53:44;30524.72;;;-135.29
15453;BMP280;7827;53.594;9.938;2023-08-08T05:56:13;30486.00;;;-135.29
15453;BMP280;7827;53.594;9.938;2023-08-08T05:58:41;30389.25;;;-135.29
15453;BMP280;7827;53.594;9.938;2023-08-08T06:01:10;30317.66;;;-135.29
15453;BMP280;7827;53.594;9.938;2023-08-08T06:03:39;30404.72;;;-135.29
15453;BMP280;7827;53.594;9.938;2023-08-08T06:06:07;30311.84;;;-135.29
15453;BMP280;7827;53.594;9.938;2023-08-08T06:08:36;30435.69;;;-135.29
15453;BMP280;7827;53.594;9.938;2023-08-08T06:11:05;30366.03;;;-135.29
15453;BMP280;7827;53.594;9.938;2023-08-08T06:13:34;30559.53;;;-135.29
15453;BMP280;7827;53.594;9.938;2023-08-08T06:16:03;30660.16;;;-135.29
15453;BMP280;7827;53.594;9.938;2023-08-08T06:18:34;30524.72;;;-135.29
15453;BMP280;7827;53.594;9.938;2023-08-08T06:21:02;30476.31;;;-135.29
15453;BMP280;7827;53.594;9.938;2023-08-08T06:23:31;30338.94;;;-135.29
15453;BMP280;7827;53.594;9.938;2023-08-08T06:25:59;30201.56;;;-135.29
15453;BMP280;7827;53.594;9.938;2023-08-08T06:28:29;30010.00;;;-135.29
15453;BMP280;7827;53.594;9.938;2023-08-08T06:30:58;29934.56;;;-135.29
15453;BMP280;7827;53.594;9.938;2023-08-08T06:33:27;29673.38;;;-135.29
15453;BMP280;7827;53.594;9.938;2023-08-08T06:35:56;29743.00;;;-135.29
15453;BMP280;7827;53.594;9.938;2023-08-08T06:38:24;29659.81;;;-135.29
15453;BMP280;7827;53.594;9.938;2023-08-08T06:40:53;29626.94;;;-135.29
15453;BMP280;7827;53.594;9.938;2023-08-08T06:43:23;29921.00;;;-135.29
15453;BMP280;7827;53.594;9.938;2023-08-08T06:45:52;29876.50;;;-135.29
15453;BMP280;7827;53.594;9.938;2023-08-08T06:48:21;29762.38;;;-135.29
15453;BMP280;7827;53.594;9.938;2023-08-08T06:50:49;29576.66;;;-135.29
15453;BMP280;7827;53.594;9.938;2023-08-08T06:53:18;29363.84;;;-135.29
15453;BMP280;7827;53.594;9.938;2023-08-08T06:55:46;29135.63;;;-135.29
15453;BMP280;7827;53.594;9.938;2023-08-08T06:58:15;28831.97;;;-135.29
15453;BMP280;7827;53.594;9.938;2023-08-08T07:00:43;28934.47;;;-135.29
15453;BMP280;7827;53.594;9.938;2023-08-08T07:03:13;28977.03;;;-135.29
15453;BMP280;7827;53.594;9.938;2023-08-08T07:05:41;29240.06;;;-135.29
15453;BMP280;7827;53.594;9.938;2023-08-08T07:08:10;29389.00;;;-135.29
15453;BMP280;7827;53.594;9.938;2023-08-08T07:10:39;29394.81;;;-135.29
15453;BMP280;7827;53.594;9.938;2023-08-08T07:13:07;29425.75;;;-135.29
15453;BMP280;7827;53.594;9.938;2023-08-08T07:15:35;29164.63;;;-135.29
15453;BMP280;7827;53.594;9.938;2023-08-08T07:18:05;28802.97;;;-135.29
15453;BMP280;7827;53.594;9.938;2023-08-08T07:20:34;28909.31;;;-135.29
15453;BMP280;7827;53.594;9.938;2023-08-08T07:23:03;28944.13;;;-135.29
15453;BMP280;7827;53.594;9.938;2023-08-08T07:25:32;28737.19;;;-135.29
15453;BMP280;7827;53.594;9.938;2023-08-08T07:28:00;28493.53;;;-135.29
15453;BMP280;7827;53.594;9.938;2023-08-08T07:30:29;28563.16;;;-135.29
15453;BMP280;7827;53.594;9.938;2023-08-08T07:32:57;28354.31;;;-135.29
15453;BMP280;7827;53.594;9.938;2023-08-08T07:35:26;28423.94;;;-135.29
15453;BMP280;7827;53.594;9.938;2023-08-08T07:37:56;28323.38;;;-135.29
15453;BMP280;7827;53.594;9.938;2023-08-08T07:40:24;28191.91;;;-135.29
15453;BMP280;7827;53.594;9.938;2023-08-08T07:42:52;28079.75;;;-135.29
15453;BMP280;7827;53.594;9.938;2023-08-08T07:45:21;27888.34;;;-135.29
15453;BMP280;7827;53.594;9.938;2023-08-08T07:47:49;27747.22;;;-135.29
15453;BMP280;7827;53.594;9.938;2023-08-08T07:50:18;28056.56;;;-135.29
15453;BMP280;7827;53.594;9.938;2023-08-08T07:52:46;27936.69;;;-135.29
15453;BMP280;7827;53.594;9.938;2023-08-08T07:55:16;27948.28;;;-135.29
15453;BMP280;7827;53.594;9.938;2023-08-08T07:57:45;28000.47;;;-135.29
15453;BMP280;7827;53.594;9.938;2023-08-08T08:00:14;27888.34;;;-135.29
15453;BMP280;7827;53.594;9.938;2023-08-08T08:02:46;28261.50;;;-135.29
15453;BMP280;7827;53.594;9.938;2023-08-08T08:05:15;28097.16;;;-135.29
15453;BMP280;7827;53.594;9.938;2023-08-08T08:07:43;28215.09;;;-135.29
15453;BMP280;7827;53.594;9.938;2023-08-08T08:10:12;27975.34;;;-135.29
15453;BMP280;7827;53.594;9.938;2023-08-08T08:12:42;27977.28;;;-135.29
15453;BMP280;7827;53.594;9.938;2023-08-08T08:15:11;28060.41;;;-135.29
15453;BMP280;7827;53.594;9.938;2023-08-08T08:17:39;28362.06;;;-135.29
15453;BMP280;7827;53.594;9.938;2023-08-08T08:20:09;28541.88;;;-135.29
15453;BMP280;7827;53.594;9.938;2023-08-08T08:22:39;28385.25;;;-135.29
15453;BMP280;7827;53.594;9.938;2023-08-08T08:25:08;28539.94;;;-135.29
15453;BMP280;7827;53.594;9.938;2023-08-08T08:27:36;28385.25;;;-135.29
15453;BMP280;7827;53.594;9.938;2023-08-08T08:30:08;28528.34;;;-135.29
15453;BMP280;7827;53.594;9.938;2023-08-08T08:32:39;28849.38;;;-135.29
15453;BMP280;7827;53.594;9.938;2023-08-08T08:35:09;28864.84;;;-135.29
15453;BMP280;7827;53.594;9.938;2023-08-08T08:37:39;28980.88;;;-135.29
15453;BMP280;7827;53.594;9.938;2023-08-08T08:40:09;29247.81;;;-135.29
15453;BMP280;7827;53.594;9.938;2023-08-08T08:42:39;29158.81;;;-135.29
15453;BMP280;7827;53.594;9.938;2023-08-08T08:45:11;29058.25;;;-135.29
15453;BMP280;7827;53.594;9.938;2023-08-08T08:47:41;29164.63;;;-135.29
15453;BMP280;7827;53.594;9.938;2023-08-08T08:50:11;29160.75;;;-135.29
15453;BMP280;7827;53.594;9.938;2023-08-08T08:52:42;29114.34;;;-135.29
15453;BMP280;7827;53.594;9.938;2023-08-08T08:55:11;29081.47;;;-135.29
15453;BMP280;7827;53.594;9.938;2023-08-08T08:57:40;28953.81;;;-135.29
15453;BMP280;7827;53.594;9.938;2023-08-08T09:00:11;28810.69;;;-135.29
15453;BMP280;7827;53.594;9.938;2023-08-08T09:02:40;28764.28;;;-135.29
15453;BMP280;7827;53.594;9.938;2023-08-08T09:05:10;28857.09;;;-135.29
15453;BMP280;7827;53.594;9.938;2023-08-08T09:07:39;28791.34;;;-135.29
15453;BMP280;7827;53.594;9.938;2023-08-08T09:10:08;28820.38;;;-135.29
15453;BMP280;7827;53.594;9.938;2023-08-08T09:12:37;28905.47;;;-135.29
15453;BMP280;7827;53.594;9.938;2023-08-08T09:15:07;29042.78;;;-135.29
15453;BMP280;7827;53.594;9.938;2023-08-08T09:17:41;28760.41;;;-135.29
15453;BMP280;7827;53.594;9.938;2023-08-08T09:20:17;28957.69;;;-135.29
15453;BMP280;7827;53.594;9.938;2023-08-08T09:22:45;28870.66;;;-135.29
15453;BMP280;7827;53.594;9.938;2023-08-08T09:25:14;28795.22;;;-135.29
15453;BMP280;7827;53.594;9.938;2023-08-08T09:27:42;28555.41;;;-135.29
15453;BMP280;7827;53.594;9.938;2023-08-08T09:30:11;28787.47;;;-135.29
15453;BMP280;7827;53.594;9.938;2023-08-08T09:32:44;28683.06;;;-135.29
15453;BMP280;7827;53.594;9.938;2023-08-08T09:35:13;29112.41;;;-135.29
15453;BMP280;7827;53.594;9.938;2023-08-08T09:37:42;29004.09;;;-135.29
15453;BMP280;7827;53.594;9.938;2023-08-08T09:40:11;29023.44;;;-135.29
15453;BMP280;7827;53.594;9.938;2023-08-08T09:42:40;29019.56;;;-135.29
15453;BMP280;7827;53.594;9.938;2023-08-08T09:45:10;29100.81;;;-135.29
15453;BMP280;7827;53.594;9.938;2023-08-08T09:47:40;29174.31;;;-135.29
15453;BMP280;7827;53.594;9.938;2023-08-08T09:50:09;29313.56;;;-135.29
15453;BMP280;7827;53.594;9.938;2023-08-08T09:52:37;29472.19;;;-135.29
15453;BMP280;7827;53.594;9.938;2023-08-08T09:55:07;29350.31;;;-135.29
15453;BMP280;7827;53.594;9.938;2023-08-08T09:57:39;29481.84;;;-135.29
15453;BMP280;7827;53.594;9.938;2023-08-08T10:00:10;29541.81;;;-135.29
15453;BMP280;7827;53.594;9.938;2023-08-08T10:02:45;29626.94;;;-135.29
15453;BMP280;7827;53.594;9.938;2023-08-08T10:05:15;29930.69;;;-135.29
15453;BMP280;7827;53.594;9.938;2023-08-08T10:07:49;30302.19;;;-135.29
15453;BMP280;7827;53.594;9.938;2023-08-08T10:10:18;30149.31;;;-135.29
15453;BMP280;7827;53.594;9.938;2023-08-08T10:12:49;30060.31;;;-135.29
15453;BMP280;7827;53.594;9.938;2023-08-08T10:15:17;30033.22;;;-135.29
15453;BMP280;7827;53.594;9.938;2023-08-08T10:17:54;30236.38;;;-135.29
15453;BMP280;7827;53.594;9.938;2023-08-08T10:20:24;30486.00;;;-135.29
15453;BMP280;7827;53.594;9.938;2023-08-08T10:22:54;30429.88;;;-135.29
15453;BMP280;7827;53.594;9.938;2023-08-08T10:25:29;30644.69;;;-135.29
15453;BMP280;7827;53.594;9.938;2023-08-08T10:28:05;30702.75;;;-135.29
15453;BMP280;7827;53.594;9.938;2023-08-08T10:30:55;30718.22;;;-135.29
15453;BMP280;7827;53.594;9.938;2023-08-08T10:33:27;30683.41;;;-135.29
15453;BMP280;7827;53.594;9.938;2023-08-08T10:36:03;30646.63;;;-135.29
15453;BMP280;7827;53.594;9.938;2023-08-08T10:38:42;30799.50;;;-135.29
15453;BMP280;7827;53.594;9.938;2023-08-08T10:41:12;30927.25;;;-135.29
15453;BMP280;7827;53.594;9.938;2023-08-08T10:43:49;30691.13;;;-135.29
15453;BMP280;7827;53.594;9.938;2023-08-08T10:46:25;30673.72;;;-135.29
15453;BMP280;7827;53.594;9.938;2023-08-08T10:48:57;30830.47;;;-135.29
15453;BMP280;7827;53.594;9.938;2023-08-08T10:51:35;30714.34;;;-135.29
15453;BMP280;7827;53.594;9.938;2023-08-08T10:54:05;30836.28;;;-135.29
15453;BMP280;7827;53.594;9.938;2023-08-08T10:56:35;30785.97;;;-135.29
15453;BMP280;7827;53.594;9.938;2023-08-08T10:59:14;31037.56;;;-135.29
15453;BMP280;7827;53.594;9.938;2023-08-08T11:01:46;31124.66;;;-135.29
15453;BMP280;7827;53.594;9.938;2023-08-08T11:04:19;31198.22;;;-135.29
15453;BMP280;7827;53.594;9.938;2023-08-08T11:06:49;31167.25;;;-135.29
15453;BMP280;7827;53.594;9.938;2023-08-08T11:09:17;31016.28;;;-135.29
15453;BMP280;7827;53.594;9.938;2023-08-08T11:11:46;31002.72;;;-135.29
15453;BMP280;7827;53.594;9.938;2023-08-08T11:14:18;30965.97;;;-135.29
15453;BMP280;7827;53.594;9.938;2023-08-08T11:16:49;31035.63;;;-135.29
15453;BMP280;7827;53.594;9.938;2023-08-08T11:19:20;30929.19;;;-135.29
15453;BMP280;7827;53.594;9.938;2023-08-08T11:21:50;30824.66;;;-135.29
15453;BMP280;7827;53.594;9.938;2023-08-08T11:24:18;30774.34;;;-135.29
15453;BMP280;7827;53.594;9.938;2023-08-08T11:26:46;30977.56;;;-135.29
15453;BMP280;7827;53.594;9.938;2023-08-08T11:29:15;31076.28;;;-135.29
15453;BMP280;7827;53.594;9.938;2023-08-08T11:31:43;31171.13;;;-135.29
15453;BMP280;7827;53.594;9.938;2023-08-08T11:34:15;31101.44;;;-135.29
15453;BMP280;7827;53.594;9.938;2023-08-08T11:36:46;30919.50;;;-135.29
15453;BMP280;7827;53.594;9.938;2023-08-08T11:39:15;30621.47;;;-135.29
15453;BMP280;7827;53.594;9.938;2023-08-08T11:41:45;30309.91;;;-135.29
15453;BMP280;7827;53.594;9.938;2023-08-08T11:44:13;30172.53;;;-135.29
15453;BMP280;7827;53.594;9.938;2023-08-08T11:46:45;30155.13;;;-135.29
15453;BMP280;7827;53.594;9.938;2023-08-08T11:49:15;30004.19;;;-135.29
15453;BMP280;7827;53.594;9.938;2023-08-08T11:51:46;30141.56;;;-135.29
15453;BMP280;7827;53.594;9.938;2023-08-08T11:54:14;30126.09;;;-135.29
15453;BMP280;7827;53.594;9.938;2023-08-08T11:56:43;30170.59;;;-135.29
15453;BMP280;7827;53.594;9.938;2023-08-08T11:59:12;30315.72;;;-135.29
15453;BMP280;7827;53.594;9.938;2023-08-08T12:01:41;29980.97;;;-135.29
15453;BMP280;7827;53.594;9.938;2023-08-08T12:04:11;30052.56;;;-135.29
15453;BMP280;7827;53.594;9.938;2023-08-08T12:06:40;29652.09;;;-135.29
15453;BMP280;7827;53.594;9.938;2023-08-08T12:09:12;29696.59;;;-135.29
15453;BMP280;7827;53.594;9.938;2023-08-08T12:11:41;29594.06;;;-135.29
15453;BMP280;7827;53.594;9.938;2023-08-08T12:14:12;29739.16;;;-135.29
15453;BMP280;7827;53.594;9.938;2023-08-08T12:16:42;29566.97;;;-135.29
15453;BMP280;7827;53.594;9.938;2023-08-08T12:19:11;29247.81;;;-135.29
15453;BMP280;7827;53.594;9.938;2023-08-08T12:21:44;29172.38;;;-135.29
15453;BMP280;7827;53.594;9.938;2023-08-08T12:24:14;29075.66;;;-135.29
15453;BMP280;7827;53.594;9.938;2023-08-08T12:26:43;29002.16;;;-135.29
15453;BMP280;7827;53.594;9.938;2023-08-08T12:29:11;29015.69;;;-135.29
15453;BMP280;7827;53.594;9.938;2023-08-08T12:31:40;28509.00;;;-135.29
15453;BMP280;7827;53.594;9.938;2023-08-08T12:34:08;28116.50;;;-135.29
15453;BMP280;7827;53.594;9.938;2023-08-08T12:36:37;28159.03;;;-135.29
15453;BMP280;7827;53.594;9.938;2023-08-08T12:39:06;27878.69;;;-135.29
15453;BMP280;7827;53.594;9.938;2023-08-08T12:41:36;27416.66;;;-135.29
15453;BMP280;7827;53.594;9.938;2023-08-08T12:44:05;27385.75;;;-135.29
15453;BMP280;7827;53.594;9.938;2023-08-08T12:46:35;27426.31;;;-135.29
15453;BMP280;7827;53.594;9.938;2023-08-08T12:49:03;27327.75;;;-135.29
15453;BMP280;7827;53.594;9.938;2023-08-08T12:51:32;27482.38;;;-135.29
15453;BMP280;7827;53.594;9.938;2023-08-08T12:54:00;27511.38;;;-135.29
15453;BMP280;7827;53.594;9.938;2023-08-08T12:56:28;27619.63;;;-135.29
15453;BMP280;7827;53.594;9.938;2023-08-08T12:58:58;28031.41;;;-135.29
15453;BMP280;7827;53.594;9.938;2023-08-08T13:01:26;28184.16;;;-135.29
15453;BMP280;7827;53.594;9.938;2023-08-08T13:03:55;28717.88;;;-135.29
15453;BMP280;7827;53.594;9.938;2023-08-08T13:06:29;29625.00;;;-135.29
15453;BMP280;7827;53.594;9.938;2023-08-08T13:08:57;29797.19;;;-135.29
15453;BMP280;7827;53.594;9.938;2023-08-08T13:11:26;30122.22;;;-135.29
15453;BMP280;7827;53.594;9.938;2023-08-08T13:13:55;30089.34;;;-135.29
15453;BMP280;7827;53.594;9.938;2023-08-08T13:16:24;30189.94;;;-135.29
15453;BMP280;7827;53.594;9.938;2023-08-08T13:18:53;30093.19;;;-135.29
15453;BMP280;7827;53.594;9.938;2023-08-08T13:21:21;30056.44;;;-135.29
15453;BMP280;7827;53.594;9.938;2023-08-08T13:23:49;29292.28;;;-135.29
15453;BMP280;7827;53.594;9.938;2023-08-08T13:26:18;28835.84;;;-135.29
15453;BMP280;7827;53.594;9.938;2023-08-08T13:28:46;28373.66;;;-135.29
15453;BMP280;7827;53.594;9.938;2023-08-08T13:31:16;28130.03;;;-135.29
15453;BMP280;7827;53.594;9.938;2023-08-08T13:33:46;27733.69;;;-135.29
15453;BMP280;7827;53.594;9.938;2023-08-08T13:36:15;27797.50;;;-135.29
15453;BMP280;7827;53.594;9.938;2023-08-08T13:38:43;27762.69;;;-135.29
15453;BMP280;7827;53.594;9.938;2023-08-08T13:41:11;27625.44;;;-135.29
15453;BMP280;7827;53.594;9.938;2023-08-08T13:43:40;27609.97;;;-135.29
15453;BMP280;7827;53.594;9.938;2023-08-08T13:46:08;28068.16;;;-135.29
15453;BMP280;7827;53.594;9.938;2023-08-08T13:48:37;28249.91;;;-135.29
15453;BMP280;7827;53.594;9.938;2023-08-08T13:51:07;28557.34;;;-135.29
15453;BMP280;7827;53.594;9.938;2023-08-08T13:53:35;29330.97;;;-135.29
15453;BMP280;7827;53.594;9.938;2023-08-08T13:56:04;29951.97;;;-135.29
15453;BMP280;7827;53.594;9.938;2023-08-08T13:58:32;30230.56;;;-135.29
15453;BMP280;7827;53.594;9.938;2023-08-08T14:01:00;30122.22;;;-135.29
15453;BMP280;7827;53.594;9.938;2023-08-08T14:03:29;30112.56;;;-135.29
15453;BMP280;7827;53.594;9.938;2023-08-08T14:05:57;30236.38;;;-135.29
15453;BMP280;7827;53.594;9.938;2023-08-08T14:08:27;30164.78;;;-135.29
15453;BMP280;7827;53.594;9.938;2023-08-08T14:10:56;30033.22;;;-135.29